This is the latest recevied weather packets stored in our database for station/object AG1T-20. If no packets are shown the sender has not sent any weather packets the latest 10 day(s).
| Time | Temp. | Humidity | Pressure | Rain* | Wind** | Luminosity | Snow |
|---|---|---|---|---|---|---|---|
| 1787719204 | 21.67° C | 43% | 1024.8 hPa | 0 mm | - | 0 W/m² | - |
| 1787718604 | 21.67° C | 45% | 1024.8 hPa | 0 mm | - | 0 W/m² | - |
| 1787718004 | 21.11° C | 48% | 1024.8 hPa | 0 mm | - | 0 W/m² | - |
| 1787717405 | 21.11° C | 49% | 1024.8 hPa | 0 mm | - | 0 W/m² | - |
| 1787716804 | 21.67° C | 47% | 1024.8 hPa | 0 mm | - | 0 W/m² | - |
| 1787716204 | 21.67° C | 47% | 1024.5 hPa | 0 mm | - | 0 W/m² | - |
| 1787715605 | 22.78° C | 41% | 1024.5 hPa | 0 mm | - | 0 W/m² | - |
| 1787715005 | 22.78° C | 40% | 1024.5 hPa | 0 mm | - | 0 W/m² | - |
| 1787714405 | 22.78° C | 43% | 1024.5 hPa | 0 mm | - | 0 W/m² | - |
| 1787713804 | 22.22° C | 43% | 1024.5 hPa | 0 mm | - | 0 W/m² | - |
| 1787713205 | 23.33° C | 40% | 1024.5 hPa | 0 mm | - | 0 W/m² | - |
| 1787712605 | 23.33° C | 41% | 1023.4 hPa | 0 mm | - | 0 W/m² | - |
| 1787712004 | 23.33° C | 42% | 1023.4 hPa | 0 mm | - | 0 W/m² | - |
| 1787711405 | 23.33° C | 41% | 1023.4 hPa | 0 mm | - | 0 W/m² | - |
| 1787710805 | 23.89° C | 42% | 1023.4 hPa | 0 mm | - | 0 W/m² | - |
| 1787710204 | 23.89° C | 41% | 1023.4 hPa | 0 mm | - | 2 W/m² | - |
| 1787709604 | 25.56° C | 33% | 1023.4 hPa | 0 mm | - | 8 W/m² | - |
| 1787709004 | 26.11° C | 32% | 1023 hPa | 0 mm | - | 10 W/m² | - |
| 1787708405 | 26.67° C | 31% | 1023 hPa | 0 mm | - | 22 W/m² | - |
| 1787707804 | 26.67° C | 32% | 1023 hPa | 0 mm | - | 27 W/m² | - |
| 1787707204 | 26.67° C | 33% | 1023 hPa | 0 mm | - | 35 W/m² | - |
| 1787706604 | 28.33° C | 28% | 1023 hPa | 0 mm | - | 33 W/m² | - |
| 1787706004 | 29.44° C | 28% | 1023 hPa | 0 mm | - | 33 W/m² | - |
| 1787705405 | 30.56° C | 25% | 1022.6 hPa | 0 mm | - | 34 W/m² | - |
| 1787704805 | 30.56° C | 35% | 1022.6 hPa | 0 mm | - | 38 W/m² | - |
* Rain latest hour (hover to see other rain measurements)
** Current wind speed in m/s (hover to see current wind gust speed)